sensor_id;sensor_type;location;lat;lon;timestamp;P1;durP1;ratioP1;P2;durP2;ratioP2
53245;SDS011;39569;51.090;-1.786;2023-04-05T14:25:45;46.60;;;36.85;;
53245;SDS011;39569;51.090;-1.786;2023-04-05T14:49:00;44.88;;;40.10;;
53245;SDS011;39569;51.090;-1.786;2023-04-05T14:51:51;47.20;;;42.30;;
53245;SDS011;39569;51.090;-1.786;2023-04-05T14:54:36;49.67;;;44.90;;
53245;SDS011;39569;51.090;-1.786;2023-04-05T14:57:42;47.08;;;42.03;;
53245;SDS011;39569;51.090;-1.786;2023-04-05T15:00:14;52.88;;;45.72;;
53245;SDS011;39569;51.090;-1.786;2023-04-05T15:03:00;50.05;;;43.45;;
53245;SDS011;39569;51.090;-1.786;2023-04-05T15:05:47;50.88;;;45.50;;
53245;SDS011;39569;51.090;-1.786;2023-04-05T15:09:19;41.22;;;36.97;;
53245;SDS011;39569;51.090;-1.786;2023-04-05T15:12:02;44.40;;;40.13;;
53245;SDS011;39569;51.090;-1.786;2023-04-05T15:18:05;48.42;;;43.60;;
53245;SDS011;39569;51.090;-1.786;2023-04-05T15:27:45;51.45;;;46.38;;
53245;SDS011;39569;51.090;-1.786;2023-04-05T15:30:30;52.88;;;47.35;;
53245;SDS011;39569;51.090;-1.786;2023-04-05T15:33:03;43.20;;;38.65;;
53245;SDS011;39569;51.090;-1.786;2023-04-05T15:35:39;44.70;;;39.97;;
53245;SDS011;39569;51.090;-1.786;2023-04-05T15:38:33;40.80;;;36.72;;
53245;SDS011;39569;51.090;-1.786;2023-04-05T15:50:47;43.97;;;39.05;;
53245;SDS011;39569;51.090;-1.786;2023-04-05T15:53:13;47.67;;;39.38;;
53245;SDS011;39569;51.090;-1.786;2023-04-05T15:55:40;47.53;;;41.58;;
53245;SDS011;39569;51.090;-1.786;2023-04-05T15:58:07;40.03;;;36.00;;
53245;SDS011;39569;51.090;-1.786;2023-04-05T16:00:34;47.33;;;40.60;;
53245;SDS011;39569;51.090;-1.786;2023-04-05T16:03:01;42.65;;;38.55;;
53245;SDS011;39569;51.090;-1.786;2023-04-05T16:05:28;39.65;;;36.03;;
53245;SDS011;39569;51.090;-1.786;2023-04-05T16:07:56;38.13;;;34.67;;
53245;SDS011;39569;51.090;-1.786;2023-04-05T16:10:23;41.15;;;37.33;;
53245;SDS011;39569;51.090;-1.786;2023-04-05T16:12:51;41.40;;;37.25;;
53245;SDS011;39569;51.090;-1.786;2023-04-05T16:15:18;36.60;;;32.95;;
53245;SDS011;39569;51.090;-1.786;2023-04-05T16:17:45;42.90;;;33.35;;
53245;SDS011;39569;51.090;-1.786;2023-04-05T16:20:12;41.00;;;35.58;;
53245;SDS011;39569;51.090;-1.786;2023-04-05T16:22:38;43.20;;;38.80;;
53245;SDS011;39569;51.090;-1.786;2023-04-05T16:25:07;43.00;;;38.65;;
53245;SDS011;39569;51.090;-1.786;2023-04-05T16:27:34;41.38;;;37.58;;
53245;SDS011;39569;51.090;-1.786;2023-04-05T16:30:01;44.15;;;39.97;;
53245;SDS011;39569;51.090;-1.786;2023-04-05T16:32:28;45.17;;;40.50;;
53245;SDS011;39569;51.090;-1.786;2023-04-05T16:34:55;42.50;;;38.08;;
53245;SDS011;39569;51.090;-1.786;2023-04-05T16:37:24;48.17;;;43.13;;
53245;SDS011;39569;51.090;-1.786;2023-04-05T16:39:51;42.72;;;38.50;;
53245;SDS011;39569;51.090;-1.786;2023-04-05T16:42:19;45.08;;;40.38;;
53245;SDS011;39569;51.090;-1.786;2023-04-05T16:44:46;42.95;;;38.95;;
53245;SDS011;39569;51.090;-1.786;2023-04-05T16:47:13;45.58;;;40.83;;
53245;SDS011;39569;51.090;-1.786;2023-04-05T16:49:40;48.30;;;43.70;;
53245;SDS011;39569;51.090;-1.786;2023-04-05T16:52:07;48.53;;;41.75;;
53245;SDS011;39569;51.090;-1.786;2023-04-05T16:54:34;50.08;;;44.88;;
53245;SDS011;39569;51.090;-1.786;2023-04-05T16:57:01;42.50;;;38.03;;
53245;SDS011;39569;51.090;-1.786;2023-04-05T16:59:29;43.42;;;38.88;;
53245;SDS011;39569;51.090;-1.786;2023-04-05T17:01:56;58.28;;;41.17;;
53245;SDS011;39569;51.090;-1.786;2023-04-05T17:04:23;43.20;;;39.15;;
53245;SDS011;39569;51.090;-1.786;2023-04-05T17:06:50;47.25;;;42.33;;
53245;SDS011;39569;51.090;-1.786;2023-04-05T17:09:17;42.05;;;37.90;;
53245;SDS011;39569;51.090;-1.786;2023-04-05T17:11:44;41.65;;;37.58;;
53245;SDS011;39569;51.090;-1.786;2023-04-05T17:14:11;42.00;;;37.95;;
53245;SDS011;39569;51.090;-1.786;2023-04-05T17:16:40;41.58;;;37.60;;
53245;SDS011;39569;51.090;-1.786;2023-04-05T17:19:06;41.03;;;37.10;;
53245;SDS011;39569;51.090;-1.786;2023-04-05T17:21:33;46.80;;;42.15;;
53245;SDS011;39569;51.090;-1.786;2023-04-05T17:24:00;46.67;;;42.22;;
53245;SDS011;39569;51.090;-1.786;2023-04-05T17:26:27;47.85;;;43.00;;
53245;SDS011;39569;51.090;-1.786;2023-04-05T17:28:54;47.38;;;42.72;;
53245;SDS011;39569;51.090;-1.786;2023-04-05T17:31:21;51.25;;;43.80;;
53245;SDS011;39569;51.090;-1.786;2023-04-05T17:33:49;46.92;;;42.38;;
53245;SDS011;39569;51.090;-1.786;2023-04-05T17:36:16;41.35;;;36.75;;
53245;SDS011;39569;51.090;-1.786;2023-04-05T17:38:43;41.38;;;37.40;;
53245;SDS011;39569;51.090;-1.786;2023-04-05T17:41:10;39.88;;;35.80;;
53245;SDS011;39569;51.090;-1.786;2023-04-05T17:43:37;44.85;;;36.88;;
53245;SDS011;39569;51.090;-1.786;2023-04-05T17:46:04;41.78;;;37.80;;
53245;SDS011;39569;51.090;-1.786;2023-04-05T17:48:33;46.15;;;41.38;;
53245;SDS011;39569;51.090;-1.786;2023-04-05T17:51:04;48.45;;;43.83;;
53245;SDS011;39569;51.090;-1.786;2023-04-05T17:53:32;50.30;;;40.15;;
53245;SDS011;39569;51.090;-1.786;2023-04-05T17:55:59;46.47;;;41.97;;
53245;SDS011;39569;51.090;-1.786;2023-04-05T17:58:26;46.50;;;39.28;;
53245;SDS011;39569;51.090;-1.786;2023-04-05T18:00:56;39.20;;;35.55;;
53245;SDS011;39569;51.090;-1.786;2023-04-05T18:03:23;43.65;;;36.95;;
53245;SDS011;39569;51.090;-1.786;2023-04-05T18:05:50;37.53;;;34.03;;
53245;SDS011;39569;51.090;-1.786;2023-04-05T18:08:19;34.83;;;31.42;;
53245;SDS011;39569;51.090;-1.786;2023-04-05T18:10:47;27.20;;;24.98;;
53245;SDS011;39569;51.090;-1.786;2023-04-05T18:13:14;30.40;;;27.42;;
53245;SDS011;39569;51.090;-1.786;2023-04-05T18:15:42;13.18;;;11.85;;
53245;SDS011;39569;51.090;-1.786;2023-04-05T18:18:08;26.52;;;24.13;;
53245;SDS011;39569;51.090;-1.786;2023-04-05T18:20:36;23.30;;;21.05;;
53245;SDS011;39569;51.090;-1.786;2023-04-05T18:23:04;22.90;;;20.98;;
53245;SDS011;39569;51.090;-1.786;2023-04-05T18:25:34;25.40;;;22.83;;
53245;SDS011;39569;51.090;-1.786;2023-04-05T18:28:01;25.30;;;22.55;;
53245;SDS011;39569;51.090;-1.786;2023-04-05T18:30:28;25.35;;;23.27;;
53245;SDS011;39569;51.090;-1.786;2023-04-05T18:32:55;24.58;;;22.00;;
53245;SDS011;39569;51.090;-1.786;2023-04-05T18:35:22;25.35;;;22.85;;
53245;SDS011;39569;51.090;-1.786;2023-04-05T18:37:48;28.55;;;25.42;;
53245;SDS011;39569;51.090;-1.786;2023-04-05T18:40:15;26.42;;;23.77;;
53245;SDS011;39569;51.090;-1.786;2023-04-05T18:42:44;25.58;;;23.13;;
53245;SDS011;39569;51.090;-1.786;2023-04-05T18:45:11;13.07;;;10.68;;
53245;SDS011;39569;51.090;-1.786;2023-04-05T18:47:38;12.35;;;9.45;;
53245;SDS011;39569;51.090;-1.786;2023-04-05T18:50:05;30.90;;;27.92;;
53245;SDS011;39569;51.090;-1.786;2023-04-05T18:52:34;36.35;;;32.53;;
53245;SDS011;39569;51.090;-1.786;2023-04-05T18:55:01;34.75;;;31.38;;
53245;SDS011;39569;51.090;-1.786;2023-04-05T18:57:28;35.67;;;32.33;;
53245;SDS011;39569;51.090;-1.786;2023-04-05T18:59:57;32.55;;;29.25;;
53245;SDS011;39569;51.090;-1.786;2023-04-05T19:02:24;33.60;;;30.38;;
53245;SDS011;39569;51.090;-1.786;2023-04-05T19:04:50;16.35;;;14.00;;
53245;SDS011;39569;51.090;-1.786;2023-04-05T19:07:17;35.83;;;32.30;;
53245;SDS011;39569;51.090;-1.786;2023-04-05T19:09:44;52.80;;;30.95;;
53245;SDS011;39569;51.090;-1.786;2023-04-05T19:12:11;35.92;;;32.85;;
53245;SDS011;39569;51.090;-1.786;2023-04-05T19:14:38;33.97;;;30.13;;
53245;SDS011;39569;51.090;-1.786;2023-04-05T19:17:07;33.58;;;30.40;;
53245;SDS011;39569;51.090;-1.786;2023-04-05T19:19:34;30.33;;;27.23;;
53245;SDS011;39569;51.090;-1.786;2023-04-05T19:22:01;29.58;;;27.05;;
53245;SDS011;39569;51.090;-1.786;2023-04-05T19:24:28;27.70;;;25.10;;
53245;SDS011;39569;51.090;-1.786;2023-04-05T19:26:55;28.27;;;25.52;;
53245;SDS011;39569;51.090;-1.786;2023-04-05T19:29:22;26.27;;;23.77;;
53245;SDS011;39569;51.090;-1.786;2023-04-05T19:31:49;24.27;;;22.15;;
53245;SDS011;39569;51.090;-1.786;2023-04-05T19:34:17;25.63;;;23.30;;
53245;SDS011;39569;51.090;-1.786;2023-04-05T19:36:44;12.55;;;8.40;;
53245;SDS011;39569;51.090;-1.786;2023-04-05T19:39:13;22.10;;;19.83;;
53245;SDS011;39569;51.090;-1.786;2023-04-05T19:41:40;23.58;;;21.63;;
53245;SDS011;39569;51.090;-1.786;2023-04-05T19:44:08;20.58;;;18.75;;
53245;SDS011;39569;51.090;-1.786;2023-04-05T19:46:36;18.48;;;16.75;;
53245;SDS011;39569;51.090;-1.786;2023-04-05T19:49:06;11.55;;;8.13;;
53245;SDS011;39569;51.090;-1.786;2023-04-05T19:51:36;17.85;;;16.20;;
53245;SDS011;39569;51.090;-1.786;2023-04-05T19:54:04;17.75;;;16.10;;
53245;SDS011;39569;51.090;-1.786;2023-04-05T19:56:35;15.98;;;14.52;;
53245;SDS011;39569;51.090;-1.786;2023-04-05T19:59:07;10.32;;;7.90;;
53245;SDS011;39569;51.090;-1.786;2023-04-05T20:01:50;29.52;;;14.70;;
53245;SDS011;39569;51.090;-1.786;2023-04-05T20:04:17;16.20;;;14.80;;
53245;SDS011;39569;51.090;-1.786;2023-04-05T20:06:47;17.42;;;15.75;;
53245;SDS011;39569;51.090;-1.786;2023-04-05T20:09:17;16.42;;;14.88;;
53245;SDS011;39569;51.090;-1.786;2023-04-05T20:11:46;15.75;;;14.25;;
53245;SDS011;39569;51.090;-1.786;2023-04-05T20:14:16;15.18;;;14.07;;
53245;SDS011;39569;51.090;-1.786;2023-04-05T20:16:45;14.48;;;13.07;;
53245;SDS011;39569;51.090;-1.786;2023-04-05T20:19:13;15.45;;;13.85;;
53245;SDS011;39569;51.090;-1.786;2023-04-05T20:21:40;13.68;;;12.48;;
53245;SDS011;39569;51.090;-1.786;2023-04-05T20:24:09;13.98;;;12.70;;
53245;SDS011;39569;51.090;-1.786;2023-04-05T20:26:42;16.65;;;15.15;;
53245;SDS011;39569;51.090;-1.786;2023-04-05T20:29:10;15.65;;;14.25;;
53245;SDS011;39569;51.090;-1.786;2023-04-05T20:31:42;14.23;;;13.07;;
53245;SDS011;39569;51.090;-1.786;2023-04-05T20:34:10;13.63;;;12.43;;
53245;SDS011;39569;51.090;-1.786;2023-04-05T20:36:39;13.68;;;12.68;;
53245;SDS011;39569;51.090;-1.786;2023-04-05T20:39:13;15.10;;;13.60;;
53245;SDS011;39569;51.090;-1.786;2023-04-05T20:41:41;13.02;;;12.00;;
53245;SDS011;39569;51.090;-1.786;2023-04-05T20:44:08;14.55;;;13.43;;
53245;SDS011;39569;51.090;-1.786;2023-04-05T20:46:35;13.65;;;12.30;;
53245;SDS011;39569;51.090;-1.786;2023-04-05T20:49:02;16.10;;;14.23;;
53245;SDS011;39569;51.090;-1.786;2023-04-05T20:51:28;15.93;;;14.82;;
53245;SDS011;39569;51.090;-1.786;2023-04-05T20:53:55;15.35;;;14.15;;
53245;SDS011;39569;51.090;-1.786;2023-04-05T20:56:24;10.25;;;8.60;;
53245;SDS011;39569;51.090;-1.786;2023-04-05T20:58:50;19.33;;;17.83;;
53245;SDS011;39569;51.090;-1.786;2023-04-05T21:01:18;19.92;;;18.15;;
53245;SDS011;39569;51.090;-1.786;2023-04-05T21:03:45;19.45;;;17.67;;
53245;SDS011;39569;51.090;-1.786;2023-04-05T21:06:12;17.40;;;16.00;;
53245;SDS011;39569;51.090;-1.786;2023-04-05T21:08:39;18.85;;;17.50;;
53245;SDS011;39569;51.090;-1.786;2023-04-05T21:11:06;19.63;;;17.98;;
53245;SDS011;39569;51.090;-1.786;2023-04-05T21:13:37;13.38;;;9.65;;
53245;SDS011;39569;51.090;-1.786;2023-04-05T21:16:05;10.23;;;9.25;;
53245;SDS011;39569;51.090;-1.786;2023-04-05T21:18:32;21.40;;;19.83;;
53245;SDS011;39569;51.090;-1.786;2023-04-05T21:21:00;22.45;;;20.45;;
53245;SDS011;39569;51.090;-1.786;2023-04-05T21:23:27;21.15;;;18.98;;
53245;SDS011;39569;51.090;-1.786;2023-04-05T21:25:54;22.98;;;20.80;;
53245;SDS011;39569;51.090;-1.786;2023-04-05T21:28:22;23.27;;;21.40;;
53245;SDS011;39569;51.090;-1.786;2023-04-05T21:30:50;9.77;;;8.88;;
53245;SDS011;39569;51.090;-1.786;2023-04-05T21:33:18;9.77;;;7.68;;
53245;SDS011;39569;51.090;-1.786;2023-04-05T21:35:45;21.65;;;20.05;;
53245;SDS011;39569;51.090;-1.786;2023-04-05T21:38:12;23.55;;;21.30;;
53245;SDS011;39569;51.090;-1.786;2023-04-05T21:40:39;22.63;;;20.60;;
53245;SDS011;39569;51.090;-1.786;2023-04-05T21:43:06;21.63;;;19.83;;
53245;SDS011;39569;51.090;-1.786;2023-04-05T21:45:33;21.60;;;19.70;;
53245;SDS011;39569;51.090;-1.786;2023-04-05T21:48:01;8.00;;;7.30;;
53245;SDS011;39569;51.090;-1.786;2023-04-05T21:50:28;19.90;;;18.33;;
53245;SDS011;39569;51.090;-1.786;2023-04-05T21:52:55;20.38;;;18.27;;
53245;SDS011;39569;51.090;-1.786;2023-04-05T21:55:22;20.73;;;19.02;;
53245;SDS011;39569;51.090;-1.786;2023-04-05T21:57:48;20.75;;;19.05;;
53245;SDS011;39569;51.090;-1.786;2023-04-05T22:00:15;19.23;;;17.55;;
53245;SDS011;39569;51.090;-1.786;2023-04-05T22:02:43;20.98;;;18.65;;
53245;SDS011;39569;51.090;-1.786;2023-04-05T22:05:14;19.30;;;17.70;;
53245;SDS011;39569;51.090;-1.786;2023-04-05T22:07:41;22.05;;;19.42;;
53245;SDS011;39569;51.090;-1.786;2023-04-05T22:10:08;12.52;;;8.48;;
53245;SDS011;39569;51.090;-1.786;2023-04-05T22:12:35;21.33;;;19.42;;
53245;SDS011;39569;51.090;-1.786;2023-04-05T22:15:02;21.00;;;18.83;;
53245;SDS011;39569;51.090;-1.786;2023-04-05T22:17:30;21.30;;;19.67;;
53245;SDS011;39569;51.090;-1.786;2023-04-05T22:19:56;18.38;;;10.55;;
53245;SDS011;39569;51.090;-1.786;2023-04-05T22:22:25;20.92;;;19.00;;
53245;SDS011;39569;51.090;-1.786;2023-04-05T22:24:51;21.98;;;20.15;;
53245;SDS011;39569;51.090;-1.786;2023-04-05T22:27:18;23.65;;;19.75;;
53245;SDS011;39569;51.090;-1.786;2023-04-05T22:29:45;22.88;;;20.67;;
53245;SDS011;39569;51.090;-1.786;2023-04-05T22:32:13;13.05;;;9.48;;
53245;SDS011;39569;51.090;-1.786;2023-04-05T22:34:40;22.52;;;20.27;;
53245;SDS011;39569;51.090;-1.786;2023-04-05T22:37:08;22.27;;;20.17;;
53245;SDS011;39569;51.090;-1.786;2023-04-05T22:39:36;21.70;;;19.80;;
53245;SDS011;39569;51.090;-1.786;2023-04-05T22:42:03;23.10;;;20.90;;
53245;SDS011;39569;51.090;-1.786;2023-04-05T22:44:30;24.77;;;22.15;;
53245;SDS011;39569;51.090;-1.786;2023-04-05T22:46:57;26.02;;;22.38;;
53245;SDS011;39569;51.090;-1.786;2023-04-05T22:49:25;23.55;;;21.60;;
53245;SDS011;39569;51.090;-1.786;2023-04-05T22:51:52;24.13;;;22.23;;
53245;SDS011;39569;51.090;-1.786;2023-04-05T22:54:18;25.85;;;23.35;;
53245;SDS011;39569;51.090;-1.786;2023-04-05T22:56:47;23.13;;;21.23;;
53245;SDS011;39569;51.090;-1.786;2023-04-05T22:59:13;24.23;;;21.80;;
53245;SDS011;39569;51.090;-1.786;2023-04-05T23:01:40;24.70;;;22.23;;
53245;SDS011;39569;51.090;-1.786;2023-04-05T23:04:07;21.30;;;19.33;;
53245;SDS011;39569;51.090;-1.786;2023-04-05T23:06:34;21.33;;;19.13;;
53245;SDS011;39569;51.090;-1.786;2023-04-05T23:09:01;22.33;;;20.05;;
53245;SDS011;39569;51.090;-1.786;2023-04-05T23:11:29;20.73;;;18.73;;
53245;SDS011;39569;51.090;-1.786;2023-04-05T23:13:57;19.92;;;18.02;;
53245;SDS011;39569;51.090;-1.786;2023-04-05T23:16:24;20.70;;;18.77;;
53245;SDS011;39569;51.090;-1.786;2023-04-05T23:18:50;19.40;;;17.38;;
53245;SDS011;39569;51.090;-1.786;2023-04-05T23:21:17;19.05;;;17.60;;
53245;SDS011;39569;51.090;-1.786;2023-04-05T23:23:44;16.63;;;15.05;;
53245;SDS011;39569;51.090;-1.786;2023-04-05T23:26:11;16.73;;;15.07;;
53245;SDS011;39569;51.090;-1.786;2023-04-05T23:28:37;15.10;;;13.93;;
53245;SDS011;39569;51.090;-1.786;2023-04-05T23:31:06;16.00;;;14.68;;
53245;SDS011;39569;51.090;-1.786;2023-04-05T23:33:33;15.68;;;13.88;;
53245;SDS011;39569;51.090;-1.786;2023-04-05T23:36:00;15.45;;;14.25;;
53245;SDS011;39569;51.090;-1.786;2023-04-05T23:38:26;14.35;;;13.05;;
53245;SDS011;39569;51.090;-1.786;2023-04-05T23:40:53;12.65;;;11.77;;
53245;SDS011;39569;51.090;-1.786;2023-04-05T23:43:20;13.50;;;12.23;;
53245;SDS011;39569;51.090;-1.786;2023-04-05T23:45:47;14.48;;;13.23;;
53245;SDS011;39569;51.090;-1.786;2023-04-05T23:48:15;13.63;;;12.38;;
53245;SDS011;39569;51.090;-1.786;2023-04-05T23:50:42;14.35;;;7.65;;
53245;SDS011;39569;51.090;-1.786;2023-04-05T23:53:09;5.93;;;5.45;;
53245;SDS011;39569;51.090;-1.786;2023-04-05T23:55:36;15.02;;;13.73;;
53245;SDS011;39569;51.090;-1.786;2023-04-05T23:58:04;12.63;;;11.63;;
